createdAt,value
2023-10-23T00:00:00.324Z,40.56
2023-10-23T00:02:27.278Z,40.75
2023-10-23T00:04:54.378Z,40.87
2023-10-23T00:07:21.456Z,40.85
2023-10-23T00:09:48.400Z,40.87
2023-10-23T00:12:15.352Z,40.51
2023-10-23T00:14:42.308Z,40.77
2023-10-23T00:17:09.235Z,40.80
2023-10-23T00:19:36.185Z,40.35
2023-10-23T00:22:03.152Z,40.38
2023-10-23T00:24:30.167Z,40.73
2023-10-23T00:26:57.103Z,40.45
2023-10-23T00:29:24.017Z,40.52
2023-10-23T00:31:50.916Z,40.59
2023-10-23T00:34:17.869Z,40.29
2023-10-23T00:36:44.808Z,40.76
2023-10-23T00:39:11.743Z,40.60
2023-10-23T00:41:38.666Z,40.72
2023-10-23T00:44:05.596Z,40.66
2023-10-23T00:46:32.589Z,40.39
2023-10-23T00:48:59.565Z,40.60
2023-10-23T00:51:26.507Z,40.70
2023-10-23T00:53:53.468Z,40.14
2023-10-23T00:56:20.388Z,40.32
2023-10-23T00:58:47.304Z,40.17
2023-10-23T01:01:14.635Z,40.66
2023-10-23T01:03:42.405Z,40.67
2023-10-23T01:06:09.635Z,40.66
2023-10-23T01:08:36.831Z,40.32
2023-10-23T01:11:03.808Z,40.36
2023-10-23T01:13:31.367Z,40.38
2023-10-23T01:15:58.269Z,40.47
2023-10-23T01:18:25.230Z,40.24
2023-10-23T01:20:52.189Z,40.43
2023-10-23T01:23:19.192Z,40.25
2023-10-23T01:25:46.170Z,40.59
2023-10-23T01:28:13.186Z,40.53
2023-10-23T01:30:40.226Z,40.19
2023-10-23T01:33:07.280Z,40.50
2023-10-23T01:35:34.264Z,40.49
2023-10-23T01:38:01.199Z,40.14
2023-10-23T01:40:28.235Z,40.33
2023-10-23T01:42:55.294Z,40.19
2023-10-23T01:45:22.265Z,40.32
2023-10-23T01:47:49.214Z,40.17
2023-10-23T01:50:16.198Z,39.95
2023-10-23T01:52:43.113Z,40.10
2023-10-23T01:55:10.076Z,40.07
2023-10-23T01:57:37.103Z,40.23
2023-10-23T02:00:05.264Z,40.22
2023-10-23T02:02:32.961Z,40.07
2023-10-23T02:05:00.405Z,40.46
2023-10-23T02:07:27.369Z,39.85
2023-10-23T02:09:54.882Z,39.97
2023-10-23T02:12:21.848Z,40.35
2023-10-23T02:14:48.775Z,39.88
2023-10-23T02:17:16.216Z,40.28
2023-10-23T02:19:43.146Z,40.35
2023-10-23T02:22:10.086Z,40.36
2023-10-23T02:24:37.283Z,40.28
2023-10-23T02:27:04.458Z,39.93
2023-10-23T02:29:31.377Z,40.19
2023-10-23T02:31:58.292Z,40.08
2023-10-23T02:34:25.252Z,39.91
2023-10-23T02:36:52.277Z,40.21
2023-10-23T02:39:19.395Z,40.01
2023-10-23T02:41:46.324Z,39.60
2023-10-23T02:44:13.237Z,39.93
2023-10-23T02:46:40.188Z,40.22
2023-10-23T02:49:07.152Z,39.74
2023-10-23T02:51:34.122Z,40.09
2023-10-23T02:54:01.065Z,39.82
2023-10-23T02:56:27.988Z,40.22
2023-10-23T02:58:54.931Z,40.26
2023-10-23T03:01:22.565Z,39.88
2023-10-23T03:03:49.902Z,39.91
2023-10-23T03:06:16.954Z,40.04
2023-10-23T03:08:44.031Z,39.88
2023-10-23T03:11:10.936Z,39.63
2023-10-23T03:13:37.883Z,39.95
2023-10-23T03:16:05.020Z,39.93
2023-10-23T03:18:32.030Z,39.67
2023-10-23T03:21:00.043Z,39.71
2023-10-23T03:23:28.536Z,40.23
2023-10-23T03:25:55.458Z,39.96
2023-10-23T03:28:22.412Z,39.95
2023-10-23T03:30:49.339Z,39.76
2023-10-23T03:33:16.313Z,39.70
2023-10-23T03:35:43.612Z,40.05
2023-10-23T03:38:10.533Z,39.81
2023-10-23T03:40:37.536Z,39.84
2023-10-23T03:43:04.468Z,39.69
2023-10-23T03:45:35.324Z,39.80
2023-10-23T03:48:02.448Z,40.13
2023-10-23T03:50:29.361Z,39.72
2023-10-23T03:52:56.263Z,40.04
2023-10-23T03:55:23.180Z,39.90
2023-10-23T03:57:50.208Z,39.89
2023-10-23T04:00:17.234Z,40.04
2023-10-23T04:02:44.207Z,40.03
2023-10-23T04:05:11.340Z,40.07
2023-10-23T04:07:38.265Z,39.68
2023-10-23T04:10:08.332Z,39.52
2023-10-23T04:12:35.295Z,39.81
2023-10-23T04:15:02.264Z,39.49
2023-10-23T04:17:29.201Z,39.83
2023-10-23T04:19:56.161Z,39.51
2023-10-23T04:22:23.069Z,39.53
2023-10-23T04:24:50.064Z,39.63
2023-10-23T04:27:17.045Z,39.31
2023-10-23T04:29:43.990Z,39.72
2023-10-23T04:32:10.896Z,39.44
2023-10-23T04:34:37.834Z,39.77
2023-10-23T04:37:04.796Z,39.35
2023-10-23T04:39:31.761Z,39.66
2023-10-23T04:41:58.713Z,39.43
2023-10-23T04:44:25.733Z,39.29
2023-10-23T04:46:52.740Z,39.59
2023-10-23T04:49:19.678Z,39.08
2023-10-23T04:51:46.626Z,39.29
2023-10-23T04:54:13.538Z,39.21
2023-10-23T04:56:40.830Z,39.19
2023-10-23T04:59:07.732Z,39.26
2023-10-23T05:01:34.704Z,39.25
2023-10-23T05:04:01.755Z,39.08
2023-10-23T05:06:28.771Z,39.60
2023-10-23T05:08:55.775Z,39.37
2023-10-23T05:11:22.708Z,39.20
2023-10-23T05:13:49.620Z,39.44
2023-10-23T05:16:16.646Z,39.45
2023-10-23T05:18:43.666Z,39.49
2023-10-23T05:21:11.311Z,39.19
2023-10-23T05:23:41.386Z,39.18
2023-10-23T05:26:08.477Z,39.39
2023-10-23T05:28:35.371Z,39.36
2023-10-23T05:31:02.335Z,39.31
2023-10-23T05:33:29.301Z,39.09
2023-10-23T05:36:03.699Z,38.84
2023-10-23T05:38:30.804Z,38.99
2023-10-23T05:40:58.196Z,39.09
2023-10-23T05:43:25.992Z,39.34
2023-10-23T05:45:53.409Z,39.26
2023-10-23T05:48:20.358Z,38.88
2023-10-23T05:50:56.548Z,38.74
2023-10-23T05:53:23.573Z,38.84
2023-10-23T05:55:50.496Z,38.77
2023-10-23T05:58:17.441Z,39.07
2023-10-23T06:00:44.369Z,39.13
2023-10-23T06:03:11.333Z,39.33
2023-10-23T06:05:41.938Z,39.26
2023-10-23T06:08:09.669Z,39.08
2023-10-23T06:10:43.955Z,38.81
2023-10-23T06:13:11.266Z,39.26
2023-10-23T06:15:38.932Z,38.91
2023-10-23T06:18:05.964Z,39.29
2023-10-23T06:20:32.965Z,39.33
2023-10-23T06:23:00.320Z,39.07
2023-10-23T06:25:27.318Z,39.12
2023-10-23T06:27:54.291Z,39.16
2023-10-23T06:30:21.330Z,39.15
2023-10-23T06:32:48.831Z,39.02
2023-10-23T06:35:16.588Z,38.73
2023-10-23T06:37:43.510Z,38.22
2023-10-23T06:40:10.667Z,38.56
2023-10-23T06:42:37.593Z,38.79
2023-10-23T06:45:04.697Z,38.62
2023-10-23T06:47:31.795Z,38.35
2023-10-23T06:49:58.732Z,38.55
2023-10-23T06:52:25.562Z,38.41
2023-10-23T06:54:52.433Z,38.92
2023-10-23T06:57:19.318Z,38.69
2023-10-23T06:59:46.286Z,38.56
2023-10-23T07:02:13.190Z,38.34
2023-10-23T07:04:40.080Z,38.71
2023-10-23T07:07:17.892Z,38.75
2023-10-23T07:09:49.366Z,38.48
2023-10-23T07:12:16.272Z,38.42
2023-10-23T07:14:43.147Z,38.55
2023-10-23T07:17:10.066Z,38.96
2023-10-23T07:19:37.156Z,38.87
2023-10-23T07:22:04.286Z,38.15
2023-10-23T07:24:31.122Z,38.83
2023-10-23T07:26:58.069Z,38.56
2023-10-23T07:29:24.945Z,39.01
2023-10-23T07:31:51.798Z,38.92
2023-10-23T07:34:18.681Z,39.01
2023-10-23T07:36:45.790Z,39.01
2023-10-23T07:39:12.754Z,39.04
2023-10-23T07:41:39.615Z,39.03
2023-10-23T07:44:06.605Z,39.17
2023-10-23T07:46:33.488Z,38.93
2023-10-23T07:49:00.449Z,39.19
2023-10-23T07:51:27.337Z,38.91
2023-10-23T07:53:55.299Z,38.80
2023-10-23T07:56:22.219Z,39.31
2023-10-23T07:58:49.111Z,39.11
2023-10-23T08:01:16.099Z,38.91
2023-10-23T08:03:44.156Z,39.11
2023-10-23T08:06:11.256Z,38.68
2023-10-23T08:08:39.223Z,39.30
2023-10-23T08:11:07.175Z,39.01
2023-10-23T08:13:35.224Z,39.14
2023-10-23T08:16:02.329Z,38.92
2023-10-23T08:20:59.111Z,38.92
2023-10-23T08:29:06.357Z,52.23
2023-10-23T08:31:39.812Z,57.61
2023-10-23T08:34:10.551Z,61.35
2023-10-23T08:36:38.968Z,63.33
2023-10-23T08:39:06.179Z,65.47
2023-10-23T08:41:35.806Z,66.46
2023-10-23T08:44:03.712Z,66.69
2023-10-23T08:46:31.164Z,67.40
2023-10-23T08:48:58.338Z,68.51
2023-10-23T08:51:28.618Z,69.64
2023-10-23T08:56:27.380Z,67.66
2023-10-23T08:58:58.503Z,69.18
2023-10-23T09:01:25.852Z,67.52
2023-10-23T09:04:03.779Z,67.37
2023-10-23T09:06:33.312Z,66.37
2023-10-23T09:09:00.452Z,65.63
2023-10-23T09:11:44.540Z,64.81
2023-10-23T09:14:12.317Z,65.08
2023-10-23T09:16:39.326Z,65.12
2023-10-23T09:19:06.331Z,64.00
2023-10-23T09:21:33.246Z,63.39
2023-10-23T09:24:00.293Z,63.54
2023-10-23T09:26:27.213Z,64.86
2023-10-23T09:28:54.317Z,64.85
2023-10-23T09:31:23.024Z,64.62
2023-10-23T09:33:51.100Z,65.01
2023-10-23T09:36:18.133Z,64.37
2023-10-23T09:38:55.645Z,64.79
2023-10-23T09:41:22.496Z,62.93
2023-10-23T09:43:49.471Z,62.74
2023-10-23T09:46:16.426Z,63.00
2023-10-23T09:48:43.564Z,62.87
2023-10-23T09:51:14.901Z,60.77
2023-10-23T09:53:48.572Z,61.01
2023-10-23T09:56:21.253Z,62.47
2023-10-23T09:58:55.049Z,64.93
2023-10-23T10:01:23.765Z,65.88
2023-10-23T10:03:50.778Z,65.97
2023-10-23T10:06:18.205Z,63.48
2023-10-23T10:08:46.406Z,62.70
2023-10-23T10:11:13.426Z,62.26
2023-10-23T10:13:40.289Z,64.95
2023-10-23T10:16:07.523Z,66.50
2023-10-23T10:18:34.421Z,66.55
2023-10-23T10:21:01.281Z,65.81
2023-10-23T10:23:28.204Z,64.71
2023-10-23T10:25:55.172Z,64.23
2023-10-23T10:28:26.477Z,64.33
2023-10-23T10:30:53.484Z,65.45
2023-10-23T10:34:18.600Z,65.92
2023-10-23T10:36:11.826Z,66.49
2023-10-23T10:38:38.802Z,65.74
2023-10-23T10:41:18.521Z,67.30
2023-10-23T10:43:51.744Z,65.79
2023-10-23T10:46:28.167Z,64.43
2023-10-23T10:48:55.801Z,64.46
2023-10-23T10:51:24.086Z,63.68
2023-10-23T10:54:01.774Z,63.08
2023-10-23T10:56:28.689Z,60.06
2023-10-23T10:58:55.700Z,59.75
2023-10-23T11:01:23.218Z,58.86
2023-10-23T11:03:50.329Z,57.87
2023-10-23T11:06:17.305Z,57.77
2023-10-23T11:08:44.219Z,56.24
2023-10-23T11:11:11.377Z,56.41
2023-10-23T11:13:38.279Z,57.11
2023-10-23T11:16:05.575Z,56.65
2023-10-23T11:18:32.495Z,57.11
2023-10-23T11:20:59.729Z,57.08
2023-10-23T11:23:30.844Z,56.28
2023-10-23T11:25:57.717Z,57.16
2023-10-23T11:28:24.958Z,56.02
2023-10-23T11:30:56.913Z,54.94
2023-10-23T11:33:23.861Z,55.46
2023-10-23T11:35:52.311Z,54.36
2023-10-23T11:38:23.490Z,54.21
2023-10-23T11:40:51.142Z,54.26
2023-10-23T11:43:18.255Z,54.26
2023-10-23T11:45:46.376Z,54.85
2023-10-23T11:48:13.390Z,53.58
2023-10-23T11:50:40.569Z,54.64
2023-10-23T11:53:07.443Z,53.21
2023-10-23T11:55:36.022Z,53.38
2023-10-23T11:58:02.972Z,53.25
2023-10-23T12:00:32.140Z,54.10
2023-10-23T12:02:59.847Z,54.28
2023-10-23T12:05:26.906Z,53.74
2023-10-23T12:07:54.440Z,53.95
2023-10-23T12:10:28.622Z,53.78
2023-10-23T12:12:56.036Z,53.63
2023-10-23T12:15:23.364Z,53.40
2023-10-23T12:17:50.324Z,54.55
2023-10-23T12:20:17.256Z,54.26
2023-10-23T12:22:45.147Z,54.24
2023-10-23T12:25:12.816Z,54.91
2023-10-23T12:27:40.020Z,55.35
2023-10-23T12:30:09.187Z,54.56
2023-10-23T12:33:17.156Z,54.62
2023-10-23T12:35:23.314Z,54.11
2023-10-23T12:37:50.319Z,54.58
2023-10-23T12:40:17.301Z,54.78
2023-10-23T12:42:44.242Z,55.43
2023-10-23T12:45:11.197Z,54.62
2023-10-23T12:47:38.185Z,55.00
2023-10-23T12:50:05.566Z,55.82
2023-10-23T12:52:32.894Z,55.78
2023-10-23T12:55:00.166Z,55.21
2023-10-23T12:57:27.171Z,55.31
2023-10-23T12:59:54.366Z,55.63
2023-10-23T13:02:21.270Z,55.97
2023-10-23T13:04:50.052Z,55.77
2023-10-23T13:07:17.251Z,55.94
2023-10-23T13:09:44.301Z,56.56
2023-10-23T13:12:11.157Z,56.78
2023-10-23T13:14:38.031Z,58.53
2023-10-23T13:17:04.993Z,57.94
2023-10-23T13:19:31.991Z,57.85
2023-10-23T13:21:59.008Z,57.36
2023-10-23T13:24:26.121Z,57.36
2023-10-23T13:26:56.146Z,57.41
2023-10-23T13:29:23.003Z,58.33
2023-10-23T13:31:50.053Z,57.38
2023-10-23T13:34:18.125Z,58.01
2023-10-23T13:36:45.151Z,56.65
2023-10-23T13:39:13.214Z,56.27
2023-10-23T13:41:41.664Z,56.30
2023-10-23T13:44:08.573Z,56.67
2023-10-23T13:46:35.559Z,56.53
2023-10-23T13:49:02.602Z,56.91
2023-10-23T13:51:29.816Z,55.70
2023-10-23T13:53:56.749Z,56.43
2023-10-23T13:56:23.669Z,56.58
2023-10-23T13:58:50.822Z,56.79
2023-10-23T14:01:17.865Z,58.78
2023-10-23T14:03:46.012Z,58.57
2023-10-23T14:06:13.108Z,58.80
2023-10-23T14:09:40.824Z,59.61
2023-10-23T14:11:58.308Z,59.50
2023-10-23T14:14:14.046Z,58.90
2023-10-23T14:16:41.297Z,58.02
2023-10-23T14:19:08.283Z,58.51
2023-10-23T14:21:35.478Z,57.88
2023-10-23T14:24:02.369Z,58.11
2023-10-23T14:26:29.221Z,57.62
2023-10-23T14:28:56.336Z,57.59
2023-10-23T14:31:23.266Z,57.41
2023-10-23T14:33:50.205Z,57.47
2023-10-23T14:36:17.084Z,57.64
2023-10-23T14:38:46.011Z,57.77
2023-10-23T14:41:12.947Z,57.56
2023-10-23T14:43:39.919Z,58.47
2023-10-23T14:46:07.027Z,58.12
2023-10-23T14:48:34.095Z,57.77
2023-10-23T14:51:01.372Z,58.07
2023-10-23T14:53:28.285Z,58.55
2023-10-23T14:55:55.246Z,58.24
2023-10-23T14:58:22.205Z,57.46
2023-10-23T15:00:49.197Z,57.84
2023-10-23T15:03:16.123Z,58.47
2023-10-23T15:05:43.034Z,57.93
2023-10-23T15:08:10.012Z,57.65
2023-10-23T15:10:37.899Z,58.25
2023-10-23T15:13:04.907Z,58.72
2023-10-23T15:15:31.948Z,58.48
2023-10-23T15:17:59.357Z,58.04
2023-10-23T15:20:29.786Z,58.72
2023-10-23T15:23:00.313Z,58.52
2023-10-23T15:25:27.296Z,59.87
2023-10-23T15:27:54.281Z,60.39
2023-10-23T15:30:21.286Z,60.12
2023-10-23T15:32:48.421Z,59.77
2023-10-23T15:35:15.358Z,59.43
2023-10-23T15:37:42.304Z,59.08
2023-10-23T15:40:09.444Z,58.72
2023-10-23T15:42:36.394Z,59.86
2023-10-23T15:45:03.408Z,59.75
2023-10-23T15:47:30.519Z,60.16
2023-10-23T15:49:57.584Z,60.61
2023-10-23T15:52:24.555Z,60.79
2023-10-23T15:54:51.604Z,62.22
2023-10-23T15:57:18.559Z,61.35
2023-10-23T15:59:45.526Z,61.83
2023-10-23T16:02:12.527Z,63.12
2023-10-23T16:04:39.830Z,62.85
2023-10-23T16:07:07.688Z,62.30
2023-10-23T16:09:34.622Z,63.58
2023-10-23T16:12:10.426Z,62.47
2023-10-23T16:14:53.760Z,62.13
2023-10-23T16:17:23.383Z,62.05
2023-10-23T16:19:50.774Z,61.94
2023-10-23T16:22:17.990Z,62.30
2023-10-23T16:24:44.999Z,62.28
2023-10-23T16:27:11.909Z,62.04
2023-10-23T16:29:39.258Z,61.58
2023-10-23T16:32:06.956Z,61.92
2023-10-23T16:34:34.034Z,61.12
2023-10-23T16:37:01.060Z,61.42
2023-10-23T16:39:28.004Z,61.79
2023-10-23T16:41:54.922Z,61.77
2023-10-23T16:44:21.836Z,63.15
2023-10-23T16:46:48.854Z,62.42
2023-10-23T16:49:16.026Z,62.62
2023-10-23T16:51:43.073Z,62.37
2023-10-23T16:54:09.995Z,62.41
2023-10-23T16:56:36.962Z,61.80
2023-10-23T16:59:04.017Z,61.10
2023-10-23T17:01:31.250Z,61.69
2023-10-23T17:03:58.417Z,61.57
2023-10-23T17:06:25.435Z,61.82
2023-10-23T17:08:52.463Z,61.89
2023-10-23T17:11:19.411Z,62.19
2023-10-23T17:13:46.339Z,62.22
2023-10-23T17:16:13.462Z,63.34
2023-10-23T17:18:40.509Z,63.50
2023-10-23T17:21:07.523Z,63.07
2023-10-23T17:23:34.448Z,62.42
2023-10-23T17:26:01.735Z,62.92
2023-10-23T17:28:28.756Z,63.11
2023-10-23T17:30:56.538Z,62.97
2023-10-23T17:33:23.890Z,63.20
2023-10-23T17:35:53.920Z,63.13
2023-10-23T17:38:20.838Z,63.38
2023-10-23T17:40:47.808Z,62.97
2023-10-23T17:43:15.669Z,62.93
2023-10-23T17:45:42.599Z,62.58
2023-10-23T17:48:09.587Z,62.67
2023-10-23T17:50:36.729Z,62.28
2023-10-23T17:53:03.740Z,63.95
2023-10-23T17:55:30.708Z,63.94
2023-10-23T17:57:57.711Z,65.95
2023-10-23T18:00:24.655Z,65.54
2023-10-23T18:02:57.953Z,65.69
2023-10-23T18:05:25.204Z,66.25
2023-10-23T18:07:52.849Z,66.16
2023-10-23T18:10:20.637Z,66.01
2023-10-23T18:12:47.647Z,65.02
2023-10-23T18:15:14.600Z,64.78
2023-10-23T18:17:41.581Z,64.38
2023-10-23T18:20:08.932Z,63.75
2023-10-23T18:22:35.979Z,63.44
2023-10-23T18:25:03.017Z,64.19
2023-10-23T18:27:30.038Z,64.07
2023-10-23T18:29:56.980Z,64.33
2023-10-23T18:32:24.023Z,63.90
2023-10-23T18:34:50.946Z,64.58
2023-10-23T18:37:18.288Z,63.95
2023-10-23T18:39:45.455Z,65.17
2023-10-23T18:42:12.405Z,65.49
2023-10-23T18:44:39.370Z,65.71
2023-10-23T18:47:06.424Z,65.45
2023-10-23T18:49:33.602Z,65.09
2023-10-23T18:52:00.604Z,65.36
2023-10-23T18:54:27.381Z,65.35
2023-10-23T18:56:54.155Z,64.65
2023-10-23T18:59:20.944Z,64.39
2023-10-23T19:01:47.745Z,64.57
2023-10-23T19:04:14.656Z,64.58
2023-10-23T19:06:41.461Z,66.27
2023-10-23T19:09:08.252Z,65.94
2023-10-23T19:11:35.013Z,65.57
2023-10-23T19:14:01.959Z,66.13
2023-10-23T19:16:28.806Z,65.50
2023-10-23T19:18:55.760Z,65.31
2023-10-23T19:21:22.640Z,65.92
2023-10-23T19:23:49.453Z,65.77
2023-10-23T19:26:16.231Z,65.87
2023-10-23T19:28:43.023Z,65.93
2023-10-23T19:31:14.887Z,66.98
2023-10-23T19:33:42.861Z,66.81
2023-10-23T19:36:10.349Z,67.94
2023-10-23T19:38:37.512Z,68.68
2023-10-23T19:41:04.420Z,67.40
2023-10-23T19:43:34.103Z,68.42
2023-10-23T19:46:01.273Z,67.55
2023-10-23T19:48:28.384Z,67.72
2023-10-23T19:50:55.161Z,67.92
2023-10-23T19:53:22.232Z,68.66
2023-10-23T19:55:50.948Z,67.19
2023-10-23T19:58:20.161Z,66.84
2023-10-23T20:00:47.152Z,66.14
2023-10-23T20:03:14.292Z,66.05
2023-10-23T20:05:41.314Z,66.03
2023-10-23T20:08:08.255Z,64.40
2023-10-23T20:10:35.264Z,64.72
2023-10-23T20:13:02.221Z,64.43
2023-10-23T20:15:29.278Z,63.17
2023-10-23T20:17:56.609Z,64.25
2023-10-23T20:20:23.830Z,64.49
2023-10-23T20:22:50.785Z,64.38
2023-10-23T20:25:18.002Z,65.24
2023-10-23T20:27:44.975Z,64.98
2023-10-23T20:30:12.627Z,64.32
2023-10-23T20:32:39.672Z,64.73
2023-10-23T20:35:06.927Z,64.11
2023-10-23T20:37:34.446Z,65.37
2023-10-23T20:40:02.161Z,64.30
2023-10-23T20:42:31.970Z,65.09
2023-10-23T20:44:58.882Z,64.55
2023-10-23T20:47:25.902Z,66.35
2023-10-23T20:49:52.879Z,66.12
2023-10-23T20:52:19.824Z,69.10
2023-10-23T20:54:46.848Z,70.33
2023-10-23T20:57:13.921Z,70.82
2023-10-23T20:59:40.917Z,70.27
2023-10-23T21:02:08.024Z,71.17
2023-10-23T21:04:35.143Z,69.72
2023-10-23T21:07:02.215Z,67.43
2023-10-23T21:09:29.220Z,67.99
2023-10-23T21:11:56.224Z,67.64
2023-10-23T21:14:23.198Z,69.46
2023-10-23T21:16:50.215Z,71.16
2023-10-23T21:19:17.217Z,71.51
2023-10-23T21:21:46.518Z,71.85
2023-10-23T21:24:13.618Z,71.77
2023-10-23T21:26:40.595Z,72.18
2023-10-23T21:29:17.187Z,71.81
2023-10-23T21:31:44.186Z,72.50
2023-10-23T21:34:11.246Z,72.47
2023-10-23T21:36:38.174Z,73.55
2023-10-23T21:39:05.119Z,73.65
2023-10-23T21:41:32.029Z,71.90
2023-10-23T21:43:58.978Z,70.55
2023-10-23T21:46:26.126Z,69.06
2023-10-23T21:48:53.149Z,69.25
2023-10-23T21:51:20.081Z,71.23
2023-10-23T21:53:47.097Z,72.93
2023-10-23T21:56:19.877Z,71.93
2023-10-23T21:59:10.036Z,71.80
2023-10-23T22:01:38.411Z,70.68
2023-10-23T22:04:05.944Z,69.98
2023-10-23T22:06:33.003Z,70.04
2023-10-23T22:09:00.156Z,70.57
2023-10-23T22:11:27.264Z,71.12
2023-10-23T22:13:54.317Z,69.95
2023-10-23T22:16:21.279Z,68.88
2023-10-23T22:18:50.910Z,67.98
2023-10-23T22:21:18.427Z,68.34
2023-10-23T22:23:45.348Z,67.36
2023-10-23T22:26:12.270Z,67.12
2023-10-23T22:28:39.287Z,66.36
2023-10-23T22:31:06.337Z,68.77
2023-10-23T22:33:33.393Z,69.88
2023-10-23T22:36:00.328Z,69.99
2023-10-23T22:38:27.266Z,69.70
2023-10-23T22:40:54.189Z,67.49
2023-10-23T22:43:21.158Z,66.32
2023-10-23T22:45:59.856Z,68.43
2023-10-23T22:48:29.758Z,68.45
2023-10-23T22:50:56.953Z,66.30
2023-10-23T22:53:24.079Z,66.03
2023-10-23T22:55:53.703Z,68.58
2023-10-23T22:58:20.990Z,68.40
2023-10-23T23:00:48.059Z,67.73
2023-10-23T23:03:15.234Z,67.30
2023-10-23T23:05:42.293Z,68.49
2023-10-23T23:08:09.259Z,66.85
2023-10-23T23:10:36.543Z,65.82
2023-10-23T23:13:03.652Z,65.41
2023-10-23T23:15:31.074Z,67.00
2023-10-23T23:17:58.032Z,68.50
2023-10-23T23:20:24.978Z,67.33
2023-10-23T23:22:52.027Z,65.91
2023-10-23T23:25:19.039Z,66.10
2023-10-23T23:27:46.013Z,66.67
2023-10-23T23:30:13.240Z,65.83
2023-10-23T23:32:40.265Z,65.01
2023-10-23T23:35:07.426Z,63.21
2023-10-23T23:37:34.598Z,64.82
2023-10-23T23:40:01.606Z,63.57
2023-10-23T23:42:28.616Z,63.48
2023-10-23T23:44:55.843Z,62.00
2023-10-23T23:47:22.739Z,61.45
2023-10-23T23:49:49.715Z,60.17
2023-10-23T23:52:16.633Z,58.66
2023-10-23T23:54:43.692Z,60.76
2023-10-23T23:57:10.621Z,62.38
2023-10-23T23:59:37.812Z,61.61
